OITTLTCI

Guest
Details From OITT - TABRIZ INTL
To LTCI - VAN
Flight Number -
Tags generated
Created
Modified
Stats Distance 141 nm / 261 km
Max Altitude 14,400 ft / 4,389 m
Waypoints 3
Social Downloads 2
Likes 0
Share VATSIM

Download

Looking for another format? Having issues loading an existing format? Contact us
Advertisement - Login to hide

Notes

Basic altitude profile: - Ascent Rate: 2500ft/min - Ascent Speed: 250kts - Cruise Altitude: 35000ft - Cruise Speed: 420kts - Descent Rate: 1500ft/min - Descent Speed: 250kts Options: - Use NATs: yes - Use PACOTS: yes - Use low airways: yes - Use high airways: yes

Route

OITT BORES LTCI

ID Type Via Altitude Latitude Longitude Leg Dist Tot Dist Heading (true) Name
O OITT APT - 0 ft / 0 m 38.13299˚ 46.23494˚ - 0 nm - TABRIZ INTL
BORES FIX - 14,400 ft / 4,389 m 38.43444˚ 45.47000˚ 40 nm 40 nm 297° / 296° -
O LTCI APT - 0 ft / 0 m 38.46822˚ 43.33230˚ 100 nm 140 nm 272° / 270° VAN

Altitude Profile

Advertisement - Login to hide

OITT

Details ICAO OITT (TBZ)
Name TABRIZ INTL
Region Iran
Timezone Asia/Tehran (UTC+3.5)
Stats Elevation 4,459 ft / 1,359 m (AMSL)
Location 38.132990° 46.234937°
Runways 2
Magnetic Variation 5.632° E

METAR

OITT 160530Z 04006KT 3500 1300SE BR NSC M03/M05 Q1026 A3030

Decode

TAF

Not found

Departure Runways

ID Width Length Bearing (true) Bearing (mag) Surface Threshold Offset Overrun Length
12L 148 ft / 45 m 11,818 ft / 3,602 m 129.05° 123.42° Asphalt 0 ft / 0 m 355 ft / 108 m
12R 98 ft / 30 m 11,531 ft / 3,515 m 128.97° 123.34° Asphalt 0 ft / 0 m 340 ft / 104 m
30L 98 ft / 30 m 11,531 ft / 3,515 m 308.99° 303.36° Asphalt 0 ft / 0 m 1,130 ft / 344 m
30R 148 ft / 45 m 11,818 ft / 3,602 m 309.07° 303.44° Asphalt 0 ft / 0 m 340 ft / 104 m

LTCI

Details ICAO LTCI (VAN)
Name VAN
Region Turkey
Timezone Europe/Istanbul (UTC+3.0)
Stats Elevation 5,480 ft / 1,670 m (AMSL)
Location 38.468221° 43.332300°
Runways 1
Magnetic Variation 5.768° E

METAR

LTCI 160450Z 08003KT CAVOK M04/M06 Q1024 NOSIG

Decode

TAF

Not found

Destination Runways

ID Width Length Bearing (true) Bearing (mag) Surface Threshold Offset Overrun Length
03 148 ft / 45 m 9,018 ft / 2,749 m 37.57° 31.80° Asphalt 0 ft / 0 m 196 ft / 60 m
21 148 ft / 45 m 9,018 ft / 2,749 m 217.59° 211.82° Asphalt 0 ft / 0 m 196 ft / 60 m